sensor_id;sensor_type;location;lat;lon;timestamp;temperature;humidity
32147;DHT22;32190;49.112;8.598;2022-10-31T00:02:37;18.40;63.80
32147;DHT22;32190;49.112;8.598;2022-10-31T00:08:28;18.30;63.70
32147;DHT22;32190;49.112;8.598;2022-10-31T00:14:19;18.20;64.00
32147;DHT22;32190;49.112;8.598;2022-10-31T00:20:10;18.20;64.10
32147;DHT22;32190;49.112;8.598;2022-10-31T00:26:04;18.20;63.80
32147;DHT22;32190;49.112;8.598;2022-10-31T00:31:55;18.20;63.80
32147;DHT22;32190;49.112;8.598;2022-10-31T00:37:45;18.10;63.90
32147;DHT22;32190;49.112;8.598;2022-10-31T00:43:36;18.10;63.80
32147;DHT22;32190;49.112;8.598;2022-10-31T00:49:26;18.00;63.80
32147;DHT22;32190;49.112;8.598;2022-10-31T00:55:17;18.00;64.00
32147;DHT22;32190;49.112;8.598;2022-10-31T01:01:08;18.00;63.80
32147;DHT22;32190;49.112;8.598;2022-10-31T01:07:01;17.90;63.90
32147;DHT22;32190;49.112;8.598;2022-10-31T01:12:51;17.90;64.00
32147;DHT22;32190;49.112;8.598;2022-10-31T01:18:42;17.80;64.00
32147;DHT22;32190;49.112;8.598;2022-10-31T01:24:33;17.80;63.90
32147;DHT22;32190;49.112;8.598;2022-10-31T01:30:23;17.80;63.80
32147;DHT22;32190;49.112;8.598;2022-10-31T01:36:20;17.70;63.90
32147;DHT22;32190;49.112;8.598;2022-10-31T01:42:18;17.60;63.60
32147;DHT22;32190;49.112;8.598;2022-10-31T01:48:13;17.50;63.80
32147;DHT22;32190;49.112;8.598;2022-10-31T01:54:08;17.50;64.10
32147;DHT22;32190;49.112;8.598;2022-10-31T02:00:03;17.60;64.20
32147;DHT22;32190;49.112;8.598;2022-10-31T02:05:55;17.60;64.20
32147;DHT22;32190;49.112;8.598;2022-10-31T02:11:47;17.60;63.90
32147;DHT22;32190;49.112;8.598;2022-10-31T02:17:38;17.60;63.80
32147;DHT22;32190;49.112;8.598;2022-10-31T02:23:35;17.60;63.60
32147;DHT22;32190;49.112;8.598;2022-10-31T02:30:32;17.60;63.40
32147;DHT22;32190;49.112;8.598;2022-10-31T02:36:04;17.50;63.90
32147;DHT22;32190;49.112;8.598;2022-10-31T02:47:50;17.50;63.80
32147;DHT22;32190;49.112;8.598;2022-10-31T02:53:42;17.50;63.60
32147;DHT22;32190;49.112;8.598;2022-10-31T02:59:35;17.50;63.60
32147;DHT22;32190;49.112;8.598;2022-10-31T03:18:01;17.30;63.60
32147;DHT22;32190;49.112;8.598;2022-10-31T03:23:55;17.30;63.70
32147;DHT22;32190;49.112;8.598;2022-10-31T03:29:47;17.30;63.60
32147;DHT22;32190;49.112;8.598;2022-10-31T03:35:42;17.30;63.60
32147;DHT22;32190;49.112;8.598;2022-10-31T03:41:39;17.30;63.60
32147;DHT22;32190;49.112;8.598;2022-10-31T03:47:32;17.30;63.40
32147;DHT22;32190;49.112;8.598;2022-10-31T03:53:35;17.20;63.50
32147;DHT22;32190;49.112;8.598;2022-10-31T03:59:37;17.20;63.60
32147;DHT22;32190;49.112;8.598;2022-10-31T04:05:30;17.20;63.60
32147;DHT22;32190;49.112;8.598;2022-10-31T04:11:25;17.20;63.50
32147;DHT22;32190;49.112;8.598;2022-10-31T04:17:19;17.20;63.50
32147;DHT22;32190;49.112;8.598;2022-10-31T04:23:24;17.10;63.50
32147;DHT22;32190;49.112;8.598;2022-10-31T04:29:14;17.10;63.50
32147;DHT22;32190;49.112;8.598;2022-10-31T04:35:05;17.10;63.30
32147;DHT22;32190;49.112;8.598;2022-10-31T04:40:56;17.00;63.40
32147;DHT22;32190;49.112;8.598;2022-10-31T04:46:46;17.00;63.40
32147;DHT22;32190;49.112;8.598;2022-10-31T04:52:41;16.90;63.40
32147;DHT22;32190;49.112;8.598;2022-10-31T04:58:32;16.90;63.50
32147;DHT22;32190;49.112;8.598;2022-10-31T05:04:23;16.90;63.50
32147;DHT22;32190;49.112;8.598;2022-10-31T05:10:16;16.80;63.50
32147;DHT22;32190;49.112;8.598;2022-10-31T05:16:07;16.80;63.50
32147;DHT22;32190;49.112;8.598;2022-10-31T05:21:58;16.80;63.50
32147;DHT22;32190;49.112;8.598;2022-10-31T05:27:50;16.80;63.60
32147;DHT22;32190;49.112;8.598;2022-10-31T05:33:41;16.70;64.20
32147;DHT22;32190;49.112;8.598;2022-10-31T05:39:31;16.70;63.40
32147;DHT22;32190;49.112;8.598;2022-10-31T05:45:22;16.70;63.30
32147;DHT22;32190;49.112;8.598;2022-10-31T05:51:13;16.60;62.80
32147;DHT22;32190;49.112;8.598;2022-10-31T05:57:03;16.40;62.60
32147;DHT22;32190;49.112;8.598;2022-10-31T06:02:58;16.30;62.80
32147;DHT22;32190;49.112;8.598;2022-10-31T06:08:49;16.20;63.30
32147;DHT22;32190;49.112;8.598;2022-10-31T06:14:40;16.20;63.40
32147;DHT22;32190;49.112;8.598;2022-10-31T06:20:31;16.10;63.30
32147;DHT22;32190;49.112;8.598;2022-10-31T06:26:21;16.10;63.60
32147;DHT22;32190;49.112;8.598;2022-10-31T06:32:12;16.10;63.50
32147;DHT22;32190;49.112;8.598;2022-10-31T06:38:03;16.10;63.50
32147;DHT22;32190;49.112;8.598;2022-10-31T06:43:53;16.10;63.20
32147;DHT22;32190;49.112;8.598;2022-10-31T06:49:44;16.00;63.00
32147;DHT22;32190;49.112;8.598;2022-10-31T06:55:34;15.90;62.90
32147;DHT22;32190;49.112;8.598;2022-10-31T07:01:25;15.70;63.00
32147;DHT22;32190;49.112;8.598;2022-10-31T07:07:16;15.60;63.50
32147;DHT22;32190;49.112;8.598;2022-10-31T07:13:10;15.50;63.70
32147;DHT22;32190;49.112;8.598;2022-10-31T07:19:01;15.50;64.00
32147;DHT22;32190;49.112;8.598;2022-10-31T07:24:52;15.60;64.20
32147;DHT22;32190;49.112;8.598;2022-10-31T07:30:42;15.60;64.10
32147;DHT22;32190;49.112;8.598;2022-10-31T07:36:33;15.60;64.20
32147;DHT22;32190;49.112;8.598;2022-10-31T07:42:24;15.60;64.30
32147;DHT22;32190;49.112;8.598;2022-10-31T07:48:14;15.60;64.50
32147;DHT22;32190;49.112;8.598;2022-10-31T07:54:05;15.70;64.70
32147;DHT22;32190;49.112;8.598;2022-10-31T07:59:55;15.60;64.90
32147;DHT22;32190;49.112;8.598;2022-10-31T08:05:46;15.70;65.20
32147;DHT22;32190;49.112;8.598;2022-10-31T08:11:36;15.80;65.60
32147;DHT22;32190;49.112;8.598;2022-10-31T08:17:27;15.80;65.70
32147;DHT22;32190;49.112;8.598;2022-10-31T08:23:18;15.90;65.90
32147;DHT22;32190;49.112;8.598;2022-10-31T08:29:08;16.00;66.10
32147;DHT22;32190;49.112;8.598;2022-10-31T08:34:59;16.00;66.20
32147;DHT22;32190;49.112;8.598;2022-10-31T08:40:49;16.10;66.40
32147;DHT22;32190;49.112;8.598;2022-10-31T08:46:40;16.10;66.70
32147;DHT22;32190;49.112;8.598;2022-10-31T08:52:31;16.20;66.70
32147;DHT22;32190;49.112;8.598;2022-10-31T08:58:22;16.30;66.90
32147;DHT22;32190;49.112;8.598;2022-10-31T09:04:13;16.40;67.10
32147;DHT22;32190;49.112;8.598;2022-10-31T09:10:03;16.50;67.30
32147;DHT22;32190;49.112;8.598;2022-10-31T09:15:56;16.60;67.50
32147;DHT22;32190;49.112;8.598;2022-10-31T09:21:47;16.70;67.60
32147;DHT22;32190;49.112;8.598;2022-10-31T09:27:37;16.80;67.70
32147;DHT22;32190;49.112;8.598;2022-10-31T09:33:28;16.90;67.60
32147;DHT22;32190;49.112;8.598;2022-10-31T09:39:18;17.00;67.70
32147;DHT22;32190;49.112;8.598;2022-10-31T09:45:23;17.20;67.60
32147;DHT22;32190;49.112;8.598;2022-10-31T09:51:55;17.30;67.30
32147;DHT22;32190;49.112;8.598;2022-10-31T09:57:47;17.40;66.80
32147;DHT22;32190;49.112;8.598;2022-10-31T10:03:45;17.50;66.50
32147;DHT22;32190;49.112;8.598;2022-10-31T10:09:37;17.60;66.30
32147;DHT22;32190;49.112;8.598;2022-10-31T10:22:08;17.80;67.50
32147;DHT22;32190;49.112;8.598;2022-10-31T10:34:31;18.00;67.30
32147;DHT22;32190;49.112;8.598;2022-10-31T10:40:25;18.10;66.50
32147;DHT22;32190;49.112;8.598;2022-10-31T10:46:43;18.20;66.80
32147;DHT22;32190;49.112;8.598;2022-10-31T10:53:32;18.30;67.00
32147;DHT22;32190;49.112;8.598;2022-10-31T10:59:28;18.30;67.00
32147;DHT22;32190;49.112;8.598;2022-10-31T11:12:36;18.50;66.60
32147;DHT22;32190;49.112;8.598;2022-10-31T11:18:30;18.60;66.60
32147;DHT22;32190;49.112;8.598;2022-10-31T11:24:57;18.80;66.50
32147;DHT22;32190;49.112;8.598;2022-10-31T11:31:01;18.80;66.50
32147;DHT22;32190;49.112;8.598;2022-10-31T11:37:22;18.90;66.30
32147;DHT22;32190;49.112;8.598;2022-10-31T11:43:16;19.00;66.30
32147;DHT22;32190;49.112;8.598;2022-10-31T11:55:34;19.20;66.00
32147;DHT22;32190;49.112;8.598;2022-10-31T12:01:28;19.20;65.80
32147;DHT22;32190;49.112;8.598;2022-10-31T12:07:19;19.30;65.60
32147;DHT22;32190;49.112;8.598;2022-10-31T12:13:40;19.40;65.50
32147;DHT22;32190;49.112;8.598;2022-10-31T12:19:38;19.50;65.20
32147;DHT22;32190;49.112;8.598;2022-10-31T12:25:40;19.50;65.20
32147;DHT22;32190;49.112;8.598;2022-10-31T12:44:17;19.70;65.30
32147;DHT22;32190;49.112;8.598;2022-10-31T12:50:27;19.70;65.20
32147;DHT22;32190;49.112;8.598;2022-10-31T13:02:39;19.80;65.00
32147;DHT22;32190;49.112;8.598;2022-10-31T13:08:47;19.90;65.00
32147;DHT22;32190;49.112;8.598;2022-10-31T13:14:50;19.90;65.00
32147;DHT22;32190;49.112;8.598;2022-10-31T13:20:44;20.00;64.90
32147;DHT22;32190;49.112;8.598;2022-10-31T13:26:54;20.00;65.00
32147;DHT22;32190;49.112;8.598;2022-10-31T13:44:43;20.20;65.20
32147;DHT22;32190;49.112;8.598;2022-10-31T13:50:33;20.40;65.10
32147;DHT22;32190;49.112;8.598;2022-10-31T13:56:32;20.50;64.90
32147;DHT22;32190;49.112;8.598;2022-10-31T14:02:31;20.60;64.40
32147;DHT22;32190;49.112;8.598;2022-10-31T14:08:23;20.60;64.30
32147;DHT22;32190;49.112;8.598;2022-10-31T14:14:22;20.70;64.10
32147;DHT22;32190;49.112;8.598;2022-10-31T14:20:49;20.80;63.90
32147;DHT22;32190;49.112;8.598;2022-10-31T14:26:54;20.80;64.10
32147;DHT22;32190;49.112;8.598;2022-10-31T14:32:50;20.70;63.30
32147;DHT22;32190;49.112;8.598;2022-10-31T14:38:46;20.70;63.20
32147;DHT22;32190;49.112;8.598;2022-10-31T14:51:22;20.40;63.20
32147;DHT22;32190;49.112;8.598;2022-10-31T14:57:18;20.40;63.80
32147;DHT22;32190;49.112;8.598;2022-10-31T15:09:00;20.40;64.00
32147;DHT22;32190;49.112;8.598;2022-10-31T15:14:51;20.50;64.00
32147;DHT22;32190;49.112;8.598;2022-10-31T15:20:44;20.50;64.00
32147;DHT22;32190;49.112;8.598;2022-10-31T15:26:38;20.60;64.10
32147;DHT22;32190;49.112;8.598;2022-10-31T15:32:31;20.60;63.90
32147;DHT22;32190;49.112;8.598;2022-10-31T15:38:23;20.70;63.80
32147;DHT22;32190;49.112;8.598;2022-10-31T15:44:21;20.80;63.70
32147;DHT22;32190;49.112;8.598;2022-10-31T15:50:40;20.80;63.40
32147;DHT22;32190;49.112;8.598;2022-10-31T15:56:32;20.80;63.40
32147;DHT22;32190;49.112;8.598;2022-10-31T16:02:25;20.90;63.40
32147;DHT22;32190;49.112;8.598;2022-10-31T16:08:32;20.90;63.30
32147;DHT22;32190;49.112;8.598;2022-10-31T16:14:26;20.90;63.10
32147;DHT22;32190;49.112;8.598;2022-10-31T16:20:22;20.90;63.10
32147;DHT22;32190;49.112;8.598;2022-10-31T16:26:17;20.80;62.90
32147;DHT22;32190;49.112;8.598;2022-10-31T16:32:25;20.80;63.00
32147;DHT22;32190;49.112;8.598;2022-10-31T16:38:16;20.70;63.00
32147;DHT22;32190;49.112;8.598;2022-10-31T16:44:24;20.70;63.20
32147;DHT22;32190;49.112;8.598;2022-10-31T16:50:21;20.70;63.20
32147;DHT22;32190;49.112;8.598;2022-10-31T16:56:24;20.50;63.20
32147;DHT22;32190;49.112;8.598;2022-10-31T17:02:16;20.50;63.40
32147;DHT22;32190;49.112;8.598;2022-10-31T17:08:07;20.50;63.30
32147;DHT22;32190;49.112;8.598;2022-10-31T17:13:58;20.40;63.50
32147;DHT22;32190;49.112;8.598;2022-10-31T17:19:49;20.30;63.30
32147;DHT22;32190;49.112;8.598;2022-10-31T17:25:40;20.20;63.60
32147;DHT22;32190;49.112;8.598;2022-10-31T17:31:32;20.20;63.60
32147;DHT22;32190;49.112;8.598;2022-10-31T17:37:23;20.20;63.60
32147;DHT22;32190;49.112;8.598;2022-10-31T17:43:14;20.20;63.50
32147;DHT22;32190;49.112;8.598;2022-10-31T17:49:04;20.10;63.30
32147;DHT22;32190;49.112;8.598;2022-10-31T17:54:57;20.10;63.20
32147;DHT22;32190;49.112;8.598;2022-10-31T18:00:51;20.00;63.10
32147;DHT22;32190;49.112;8.598;2022-10-31T18:06:45;19.90;63.20
32147;DHT22;32190;49.112;8.598;2022-10-31T18:12:39;19.80;63.10
32147;DHT22;32190;49.112;8.598;2022-10-31T18:18:29;19.80;63.40
32147;DHT22;32190;49.112;8.598;2022-10-31T18:24:20;19.80;63.40
32147;DHT22;32190;49.112;8.598;2022-10-31T18:30:11;19.70;63.40
32147;DHT22;32190;49.112;8.598;2022-10-31T18:36:05;19.70;63.80
32147;DHT22;32190;49.112;8.598;2022-10-31T18:42:03;19.60;63.80
32147;DHT22;32190;49.112;8.598;2022-10-31T18:47:54;19.70;63.80
32147;DHT22;32190;49.112;8.598;2022-10-31T18:53:52;19.70;63.70
32147;DHT22;32190;49.112;8.598;2022-10-31T18:59:43;19.60;63.90
32147;DHT22;32190;49.112;8.598;2022-10-31T19:05:33;19.60;63.80
32147;DHT22;32190;49.112;8.598;2022-10-31T19:11:25;19.60;63.90
32147;DHT22;32190;49.112;8.598;2022-10-31T19:17:15;19.50;64.00
32147;DHT22;32190;49.112;8.598;2022-10-31T19:23:06;19.50;63.90
32147;DHT22;32190;49.112;8.598;2022-10-31T19:28:57;19.50;63.80
32147;DHT22;32190;49.112;8.598;2022-10-31T19:34:47;19.50;63.90
32147;DHT22;32190;49.112;8.598;2022-10-31T19:40:38;19.50;64.00
32147;DHT22;32190;49.112;8.598;2022-10-31T19:46:29;19.50;63.80
32147;DHT22;32190;49.112;8.598;2022-10-31T19:52:19;19.40;63.80
32147;DHT22;32190;49.112;8.598;2022-10-31T19:58:10;19.40;64.40
32147;DHT22;32190;49.112;8.598;2022-10-31T20:04:01;19.40;63.50
32147;DHT22;32190;49.112;8.598;2022-10-31T20:09:51;19.40;63.50
32147;DHT22;32190;49.112;8.598;2022-10-31T20:15:42;19.30;63.50
32147;DHT22;32190;49.112;8.598;2022-10-31T20:21:36;19.20;63.40
32147;DHT22;32190;49.112;8.598;2022-10-31T20:27:27;19.20;63.60
32147;DHT22;32190;49.112;8.598;2022-10-31T20:33:18;19.10;63.70
32147;DHT22;32190;49.112;8.598;2022-10-31T20:39:09;19.00;63.90
32147;DHT22;32190;49.112;8.598;2022-10-31T20:44:59;19.00;63.80
32147;DHT22;32190;49.112;8.598;2022-10-31T20:50:57;18.90;63.90
32147;DHT22;32190;49.112;8.598;2022-10-31T20:56:48;18.80;63.60
32147;DHT22;32190;49.112;8.598;2022-10-31T21:02:40;18.80;63.80
32147;DHT22;32190;49.112;8.598;2022-10-31T21:08:31;18.70;64.10
32147;DHT22;32190;49.112;8.598;2022-10-31T21:14:22;18.70;64.20
32147;DHT22;32190;49.112;8.598;2022-10-31T21:20:13;18.60;64.10
32147;DHT22;32190;49.112;8.598;2022-10-31T21:26:26;18.70;64.20
32147;DHT22;32190;49.112;8.598;2022-10-31T21:32:16;18.60;64.20
32147;DHT22;32190;49.112;8.598;2022-10-31T21:38:08;18.70;64.20
32147;DHT22;32190;49.112;8.598;2022-10-31T21:43:59;18.70;64.20
32147;DHT22;32190;49.112;8.598;2022-10-31T21:49:49;18.70;64.00
32147;DHT22;32190;49.112;8.598;2022-10-31T21:55:40;18.70;63.90
32147;DHT22;32190;49.112;8.598;2022-10-31T22:01:31;18.60;63.90
32147;DHT22;32190;49.112;8.598;2022-10-31T22:07:22;18.60;64.20
32147;DHT22;32190;49.112;8.598;2022-10-31T22:13:12;18.60;64.10
32147;DHT22;32190;49.112;8.598;2022-10-31T22:19:05;18.60;64.20
32147;DHT22;32190;49.112;8.598;2022-10-31T22:24:56;18.60;64.70
32147;DHT22;32190;49.112;8.598;2022-10-31T22:30:46;18.60;63.90
32147;DHT22;32190;49.112;8.598;2022-10-31T22:36:37;18.60;63.90
32147;DHT22;32190;49.112;8.598;2022-10-31T22:42:28;18.60;63.90
32147;DHT22;32190;49.112;8.598;2022-10-31T22:48:19;18.60;63.90
32147;DHT22;32190;49.112;8.598;2022-10-31T22:54:14;18.60;63.80
32147;DHT22;32190;49.112;8.598;2022-10-31T23:00:05;18.60;63.80
32147;DHT22;32190;49.112;8.598;2022-10-31T23:05:59;18.60;63.90
32147;DHT22;32190;49.112;8.598;2022-10-31T23:11:50;18.50;63.90
32147;DHT22;32190;49.112;8.598;2022-10-31T23:17:40;18.50;63.70
32147;DHT22;32190;49.112;8.598;2022-10-31T23:23:36;18.50;63.70
32147;DHT22;32190;49.112;8.598;2022-10-31T23:29:27;18.50;63.70
32147;DHT22;32190;49.112;8.598;2022-10-31T23:35:17;18.40;63.80
32147;DHT22;32190;49.112;8.598;2022-10-31T23:41:08;18.30;63.80
32147;DHT22;32190;49.112;8.598;2022-10-31T23:46:59;18.30;63.90
32147;DHT22;32190;49.112;8.598;2022-10-31T23:52:49;18.30;64.10
32147;DHT22;32190;49.112;8.598;2022-10-31T23:58:40;18.30;64.20
